sensor_id;sensor_type;location;lat;lon;timestamp;P1;durP1;ratioP1;P2;durP2;ratioP2
22287;SDS011;11312;51.464;6.968;2022-11-13T00:01:45;11.07;;;5.03;;
22287;SDS011;11312;51.464;6.968;2022-11-13T00:04:10;10.95;;;4.85;;
22287;SDS011;11312;51.464;6.968;2022-11-13T00:06:36;12.75;;;4.47;;
22287;SDS011;11312;51.464;6.968;2022-11-13T00:09:02;9.68;;;4.15;;
22287;SDS011;11312;51.464;6.968;2022-11-13T00:11:27;8.32;;;3.20;;
22287;SDS011;11312;51.464;6.968;2022-11-13T00:13:53;14.50;;;4.40;;
22287;SDS011;11312;51.464;6.968;2022-11-13T00:16:20;8.63;;;3.38;;
22287;SDS011;11312;51.464;6.968;2022-11-13T00:18:46;9.15;;;3.60;;
22287;SDS011;11312;51.464;6.968;2022-11-13T00:21:14;9.65;;;3.35;;
22287;SDS011;11312;51.464;6.968;2022-11-13T00:23:45;9.77;;;3.60;;
22287;SDS011;11312;51.464;6.968;2022-11-13T00:26:22;11.18;;;4.63;;
22287;SDS011;11312;51.464;6.968;2022-11-13T00:29:07;11.02;;;3.70;;
22287;SDS011;11312;51.464;6.968;2022-11-13T00:31:36;9.48;;;3.88;;
22287;SDS011;11312;51.464;6.968;2022-11-13T00:34:02;10.88;;;3.70;;
22287;SDS011;11312;51.464;6.968;2022-11-13T00:36:29;9.82;;;3.72;;
22287;SDS011;11312;51.464;6.968;2022-11-13T00:38:55;11.35;;;4.63;;
22287;SDS011;11312;51.464;6.968;2022-11-13T00:41:21;10.00;;;4.28;;
22287;SDS011;11312;51.464;6.968;2022-11-13T00:43:47;9.43;;;3.90;;
22287;SDS011;11312;51.464;6.968;2022-11-13T00:46:13;9.00;;;3.88;;
22287;SDS011;11312;51.464;6.968;2022-11-13T00:48:39;8.38;;;3.60;;
22287;SDS011;11312;51.464;6.968;2022-11-13T00:51:04;11.93;;;3.67;;
22287;SDS011;11312;51.464;6.968;2022-11-13T00:53:30;8.55;;;3.83;;
22287;SDS011;11312;51.464;6.968;2022-11-13T00:55:56;8.07;;;3.40;;
22287;SDS011;11312;51.464;6.968;2022-11-13T00:58:21;11.43;;;3.35;;
22287;SDS011;11312;51.464;6.968;2022-11-13T01:00:47;9.85;;;3.47;;
22287;SDS011;11312;51.464;6.968;2022-11-13T01:03:17;8.98;;;3.25;;
22287;SDS011;11312;51.464;6.968;2022-11-13T01:05:43;8.23;;;3.40;;
22287;SDS011;11312;51.464;6.968;2022-11-13T01:08:10;9.27;;;4.05;;
22287;SDS011;11312;51.464;6.968;2022-11-13T01:10:39;14.40;;;3.60;;
22287;SDS011;11312;51.464;6.968;2022-11-13T01:13:11;7.82;;;3.28;;
22287;SDS011;11312;51.464;6.968;2022-11-13T01:15:37;7.53;;;3.42;;
22287;SDS011;11312;51.464;6.968;2022-11-13T01:18:04;7.63;;;2.72;;
22287;SDS011;11312;51.464;6.968;2022-11-13T01:20:30;10.68;;;4.78;;
22287;SDS011;11312;51.464;6.968;2022-11-13T01:22:57;8.50;;;3.40;;
22287;SDS011;11312;51.464;6.968;2022-11-13T01:25:23;7.78;;;3.10;;
22287;SDS011;11312;51.464;6.968;2022-11-13T01:27:49;9.20;;;4.07;;
22287;SDS011;11312;51.464;6.968;2022-11-13T01:30:15;8.48;;;3.85;;
22287;SDS011;11312;51.464;6.968;2022-11-13T01:32:41;8.55;;;3.53;;
22287;SDS011;11312;51.464;6.968;2022-11-13T01:35:06;9.18;;;3.40;;
22287;SDS011;11312;51.464;6.968;2022-11-13T01:37:32;10.52;;;4.47;;
22287;SDS011;11312;51.464;6.968;2022-11-13T01:39:58;9.38;;;4.03;;
22287;SDS011;11312;51.464;6.968;2022-11-13T01:42:23;11.93;;;4.30;;
22287;SDS011;11312;51.464;6.968;2022-11-13T01:44:53;11.75;;;3.47;;
22287;SDS011;11312;51.464;6.968;2022-11-13T01:47:22;7.43;;;2.78;;
22287;SDS011;11312;51.464;6.968;2022-11-13T01:49:50;6.70;;;2.70;;
22287;SDS011;11312;51.464;6.968;2022-11-13T01:52:19;8.27;;;2.92;;
22287;SDS011;11312;51.464;6.968;2022-11-13T01:54:49;9.38;;;3.22;;
22287;SDS011;11312;51.464;6.968;2022-11-13T01:57:18;6.60;;;3.08;;
22287;SDS011;11312;51.464;6.968;2022-11-13T01:59:48;8.32;;;3.28;;
22287;SDS011;11312;51.464;6.968;2022-11-13T02:02:17;9.15;;;3.35;;
22287;SDS011;11312;51.464;6.968;2022-11-13T02:04:44;8.60;;;3.33;;
22287;SDS011;11312;51.464;6.968;2022-11-13T02:07:10;8.00;;;3.25;;
22287;SDS011;11312;51.464;6.968;2022-11-13T02:09:39;6.70;;;2.83;;
22287;SDS011;11312;51.464;6.968;2022-11-13T02:12:07;14.13;;;5.13;;
22287;SDS011;11312;51.464;6.968;2022-11-13T02:14:38;8.10;;;3.50;;
22287;SDS011;11312;51.464;6.968;2022-11-13T02:17:07;8.07;;;3.28;;
22287;SDS011;11312;51.464;6.968;2022-11-13T02:19:36;6.78;;;3.00;;
22287;SDS011;11312;51.464;6.968;2022-11-13T02:24:57;8.68;;;3.25;;
22287;SDS011;11312;51.464;6.968;2022-11-13T02:27:30;6.75;;;2.35;;
22287;SDS011;11312;51.464;6.968;2022-11-13T02:30:10;7.30;;;3.47;;
22287;SDS011;11312;51.464;6.968;2022-11-13T02:32:45;8.45;;;3.83;;
22287;SDS011;11312;51.464;6.968;2022-11-13T02:37:59;7.63;;;3.13;;
22287;SDS011;11312;51.464;6.968;2022-11-13T02:40:27;10.80;;;3.38;;
22287;SDS011;11312;51.464;6.968;2022-11-13T02:42:54;11.05;;;3.08;;
22287;SDS011;11312;51.464;6.968;2022-11-13T02:45:19;8.73;;;3.25;;
22287;SDS011;11312;51.464;6.968;2022-11-13T02:47:45;9.40;;;3.45;;
22287;SDS011;11312;51.464;6.968;2022-11-13T02:50:11;12.43;;;4.93;;
22287;SDS011;11312;51.464;6.968;2022-11-13T02:52:39;8.60;;;2.97;;
22287;SDS011;11312;51.464;6.968;2022-11-13T02:55:06;9.00;;;3.40;;
22287;SDS011;11312;51.464;6.968;2022-11-13T02:57:35;7.50;;;3.35;;
22287;SDS011;11312;51.464;6.968;2022-11-13T03:00:00;7.82;;;3.38;;
22287;SDS011;11312;51.464;6.968;2022-11-13T03:02:26;6.35;;;2.70;;
22287;SDS011;11312;51.464;6.968;2022-11-13T03:04:53;14.07;;;2.95;;
22287;SDS011;11312;51.464;6.968;2022-11-13T03:07:20;10.60;;;3.70;;
22287;SDS011;11312;51.464;6.968;2022-11-13T03:09:45;7.90;;;3.47;;
22287;SDS011;11312;51.464;6.968;2022-11-13T03:12:12;7.57;;;3.03;;
22287;SDS011;11312;51.464;6.968;2022-11-13T03:14:38;8.55;;;3.63;;
22287;SDS011;11312;51.464;6.968;2022-11-13T03:17:05;7.70;;;2.72;;
22287;SDS011;11312;51.464;6.968;2022-11-13T03:19:31;8.05;;;2.88;;
22287;SDS011;11312;51.464;6.968;2022-11-13T03:21:56;8.63;;;3.03;;
22287;SDS011;11312;51.464;6.968;2022-11-13T03:24:23;7.32;;;3.00;;
22287;SDS011;11312;51.464;6.968;2022-11-13T03:26:49;10.10;;;3.97;;
22287;SDS011;11312;51.464;6.968;2022-11-13T03:29:16;9.82;;;4.22;;
22287;SDS011;11312;51.464;6.968;2022-11-13T03:31:42;9.35;;;3.55;;
22287;SDS011;11312;51.464;6.968;2022-11-13T03:34:09;10.60;;;5.30;;
22287;SDS011;11312;51.464;6.968;2022-11-13T03:36:34;7.47;;;2.92;;
22287;SDS011;11312;51.464;6.968;2022-11-13T03:39:00;11.02;;;3.75;;
22287;SDS011;11312;51.464;6.968;2022-11-13T03:41:25;7.13;;;3.13;;
22287;SDS011;11312;51.464;6.968;2022-11-13T03:43:51;8.68;;;3.58;;
22287;SDS011;11312;51.464;6.968;2022-11-13T03:46:17;9.38;;;3.97;;
22287;SDS011;11312;51.464;6.968;2022-11-13T03:48:42;11.07;;;5.00;;
22287;SDS011;11312;51.464;6.968;2022-11-13T03:51:08;8.23;;;3.22;;
22287;SDS011;11312;51.464;6.968;2022-11-13T03:53:34;9.32;;;3.95;;
22287;SDS011;11312;51.464;6.968;2022-11-13T03:58:28;8.95;;;3.70;;
22287;SDS011;11312;51.464;6.968;2022-11-13T04:00:54;12.13;;;4.57;;
22287;SDS011;11312;51.464;6.968;2022-11-13T04:03:21;8.13;;;3.33;;
22287;SDS011;11312;51.464;6.968;2022-11-13T04:05:48;8.63;;;3.15;;
22287;SDS011;11312;51.464;6.968;2022-11-13T04:10:43;6.80;;;2.65;;
22287;SDS011;11312;51.464;6.968;2022-11-13T04:13:10;8.23;;;3.05;;
22287;SDS011;11312;51.464;6.968;2022-11-13T04:15:37;11.38;;;4.45;;
22287;SDS011;11312;51.464;6.968;2022-11-13T04:18:03;8.77;;;3.15;;
22287;SDS011;11312;51.464;6.968;2022-11-13T04:20:29;9.77;;;3.65;;
22287;SDS011;11312;51.464;6.968;2022-11-13T04:22:57;5.97;;;2.35;;
22287;SDS011;11312;51.464;6.968;2022-11-13T04:25:23;7.88;;;3.42;;
22287;SDS011;11312;51.464;6.968;2022-11-13T04:27:50;7.65;;;3.08;;
22287;SDS011;11312;51.464;6.968;2022-11-13T04:30:16;6.82;;;2.90;;
22287;SDS011;11312;51.464;6.968;2022-11-13T04:32:42;12.63;;;4.72;;
22287;SDS011;11312;51.464;6.968;2022-11-13T04:35:09;7.28;;;2.88;;
22287;SDS011;11312;51.464;6.968;2022-11-13T04:37:35;9.30;;;4.00;;
22287;SDS011;11312;51.464;6.968;2022-11-13T04:40:01;9.95;;;4.00;;
22287;SDS011;11312;51.464;6.968;2022-11-13T04:42:27;5.68;;;2.40;;
22287;SDS011;11312;51.464;6.968;2022-11-13T04:45:11;8.00;;;3.25;;
22287;SDS011;11312;51.464;6.968;2022-11-13T04:47:37;6.97;;;2.90;;
22287;SDS011;11312;51.464;6.968;2022-11-13T04:50:03;7.03;;;3.08;;
22287;SDS011;11312;51.464;6.968;2022-11-13T04:52:32;10.43;;;3.60;;
22287;SDS011;11312;51.464;6.968;2022-11-13T04:54:59;8.20;;;3.08;;
22287;SDS011;11312;51.464;6.968;2022-11-13T04:57:25;7.75;;;3.47;;
22287;SDS011;11312;51.464;6.968;2022-11-13T04:59:50;7.07;;;2.83;;
22287;SDS011;11312;51.464;6.968;2022-11-13T05:02:16;7.65;;;3.28;;
22287;SDS011;11312;51.464;6.968;2022-11-13T05:04:42;18.40;;;5.82;;
22287;SDS011;11312;51.464;6.968;2022-11-13T05:07:10;9.35;;;3.55;;
22287;SDS011;11312;51.464;6.968;2022-11-13T05:09:36;6.38;;;2.60;;
22287;SDS011;11312;51.464;6.968;2022-11-13T05:12:03;10.82;;;3.95;;
22287;SDS011;11312;51.464;6.968;2022-11-13T05:14:32;13.15;;;4.80;;
22287;SDS011;11312;51.464;6.968;2022-11-13T05:17:02;6.93;;;2.90;;
22287;SDS011;11312;51.464;6.968;2022-11-13T05:19:33;8.20;;;3.22;;
22287;SDS011;11312;51.464;6.968;2022-11-13T05:22:00;7.82;;;3.10;;
22287;SDS011;11312;51.464;6.968;2022-11-13T05:24:26;12.68;;;3.78;;
22287;SDS011;11312;51.464;6.968;2022-11-13T05:26:51;10.52;;;4.68;;
22287;SDS011;11312;51.464;6.968;2022-11-13T05:29:18;8.65;;;4.18;;
22287;SDS011;11312;51.464;6.968;2022-11-13T05:31:44;7.53;;;2.92;;
22287;SDS011;11312;51.464;6.968;2022-11-13T05:34:10;6.60;;;2.50;;
22287;SDS011;11312;51.464;6.968;2022-11-13T05:36:36;10.18;;;4.10;;
22287;SDS011;11312;51.464;6.968;2022-11-13T05:39:02;6.72;;;2.80;;
22287;SDS011;11312;51.464;6.968;2022-11-13T05:41:28;8.02;;;3.00;;
22287;SDS011;11312;51.464;6.968;2022-11-13T05:43:54;10.35;;;4.20;;
22287;SDS011;11312;51.464;6.968;2022-11-13T05:46:22;11.10;;;4.28;;
22287;SDS011;11312;51.464;6.968;2022-11-13T05:48:53;9.77;;;3.95;;
22287;SDS011;11312;51.464;6.968;2022-11-13T05:51:20;7.25;;;3.00;;
22287;SDS011;11312;51.464;6.968;2022-11-13T05:53:47;7.88;;;3.40;;
22287;SDS011;11312;51.464;6.968;2022-11-13T05:56:15;5.72;;;2.35;;
22287;SDS011;11312;51.464;6.968;2022-11-13T05:58:43;6.30;;;2.67;;
22287;SDS011;11312;51.464;6.968;2022-11-13T06:03:46;6.47;;;2.75;;
22287;SDS011;11312;51.464;6.968;2022-11-13T06:06:13;6.68;;;2.58;;
22287;SDS011;11312;51.464;6.968;2022-11-13T06:08:41;6.50;;;2.67;;
22287;SDS011;11312;51.464;6.968;2022-11-13T06:11:10;6.45;;;2.45;;
22287;SDS011;11312;51.464;6.968;2022-11-13T06:13:40;9.35;;;4.13;;
22287;SDS011;11312;51.464;6.968;2022-11-13T06:16:08;6.82;;;2.75;;
22287;SDS011;11312;51.464;6.968;2022-11-13T06:18:42;8.73;;;3.15;;
22287;SDS011;11312;51.464;6.968;2022-11-13T06:21:11;7.60;;;3.03;;
22287;SDS011;11312;51.464;6.968;2022-11-13T06:23:42;8.45;;;3.47;;
22287;SDS011;11312;51.464;6.968;2022-11-13T06:26:12;7.32;;;3.42;;
22287;SDS011;11312;51.464;6.968;2022-11-13T06:28:57;9.40;;;3.85;;
22287;SDS011;11312;51.464;6.968;2022-11-13T06:31:25;8.88;;;3.58;;
22287;SDS011;11312;51.464;6.968;2022-11-13T06:33:54;8.32;;;3.33;;
22287;SDS011;11312;51.464;6.968;2022-11-13T06:36:22;8.63;;;3.75;;
22287;SDS011;11312;51.464;6.968;2022-11-13T06:38:50;9.80;;;4.78;;
22287;SDS011;11312;51.464;6.968;2022-11-13T06:41:17;8.63;;;3.65;;
22287;SDS011;11312;51.464;6.968;2022-11-13T06:43:44;7.53;;;3.17;;
22287;SDS011;11312;51.464;6.968;2022-11-13T06:46:15;7.05;;;3.03;;
22287;SDS011;11312;51.464;6.968;2022-11-13T06:48:43;6.82;;;2.85;;
22287;SDS011;11312;51.464;6.968;2022-11-13T06:51:10;10.30;;;4.22;;
22287;SDS011;11312;51.464;6.968;2022-11-13T06:53:39;7.57;;;2.90;;
22287;SDS011;11312;51.464;6.968;2022-11-13T06:56:05;6.55;;;2.50;;
22287;SDS011;11312;51.464;6.968;2022-11-13T06:58:31;6.47;;;2.53;;
22287;SDS011;11312;51.464;6.968;2022-11-13T07:00:57;8.07;;;3.30;;
22287;SDS011;11312;51.464;6.968;2022-11-13T07:03:33;8.57;;;3.08;;
22287;SDS011;11312;51.464;6.968;2022-11-13T07:06:04;8.15;;;3.55;;
22287;SDS011;11312;51.464;6.968;2022-11-13T07:08:30;8.00;;;3.05;;
22287;SDS011;11312;51.464;6.968;2022-11-13T07:10:57;5.88;;;2.60;;
22287;SDS011;11312;51.464;6.968;2022-11-13T07:13:24;6.75;;;2.90;;
22287;SDS011;11312;51.464;6.968;2022-11-13T07:15:51;9.85;;;3.05;;
22287;SDS011;11312;51.464;6.968;2022-11-13T07:18:17;7.80;;;2.83;;
22287;SDS011;11312;51.464;6.968;2022-11-13T07:20:43;11.25;;;3.47;;
22287;SDS011;11312;51.464;6.968;2022-11-13T07:23:09;8.05;;;3.22;;
22287;SDS011;11312;51.464;6.968;2022-11-13T07:25:37;7.25;;;2.92;;
22287;SDS011;11312;51.464;6.968;2022-11-13T07:28:03;8.90;;;3.60;;
22287;SDS011;11312;51.464;6.968;2022-11-13T07:30:29;6.50;;;2.45;;
22287;SDS011;11312;51.464;6.968;2022-11-13T07:32:54;6.15;;;2.53;;
22287;SDS011;11312;51.464;6.968;2022-11-13T07:35:22;8.15;;;3.80;;
22287;SDS011;11312;51.464;6.968;2022-11-13T07:37:49;7.22;;;2.78;;
22287;SDS011;11312;51.464;6.968;2022-11-13T07:40:20;7.47;;;3.00;;
22287;SDS011;11312;51.464;6.968;2022-11-13T07:42:47;9.85;;;3.78;;
22287;SDS011;11312;51.464;6.968;2022-11-13T07:45:32;8.25;;;3.50;;
22287;SDS011;11312;51.464;6.968;2022-11-13T07:47:58;8.40;;;3.75;;
22287;SDS011;11312;51.464;6.968;2022-11-13T07:50:28;5.72;;;2.78;;
22287;SDS011;11312;51.464;6.968;2022-11-13T07:52:56;9.38;;;3.60;;
22287;SDS011;11312;51.464;6.968;2022-11-13T07:55:23;6.18;;;2.47;;
22287;SDS011;11312;51.464;6.968;2022-11-13T07:57:49;9.38;;;3.17;;
22287;SDS011;11312;51.464;6.968;2022-11-13T08:00:18;8.20;;;3.20;;
22287;SDS011;11312;51.464;6.968;2022-11-13T08:07:47;7.55;;;2.80;;
22287;SDS011;11312;51.464;6.968;2022-11-13T08:10:19;7.85;;;3.22;;
22287;SDS011;11312;51.464;6.968;2022-11-13T08:12:45;7.32;;;2.92;;
22287;SDS011;11312;51.464;6.968;2022-11-13T08:15:13;14.68;;;3.67;;
22287;SDS011;11312;51.464;6.968;2022-11-13T08:17:42;8.70;;;3.22;;
22287;SDS011;11312;51.464;6.968;2022-11-13T08:20:09;7.70;;;3.05;;
22287;SDS011;11312;51.464;6.968;2022-11-13T08:22:35;6.75;;;2.63;;
22287;SDS011;11312;51.464;6.968;2022-11-13T08:25:02;7.88;;;2.95;;
22287;SDS011;11312;51.464;6.968;2022-11-13T08:27:36;9.30;;;3.72;;
22287;SDS011;11312;51.464;6.968;2022-11-13T08:30:02;6.50;;;2.50;;
22287;SDS011;11312;51.464;6.968;2022-11-13T08:32:28;8.57;;;3.17;;
22287;SDS011;11312;51.464;6.968;2022-11-13T08:35:03;8.55;;;3.25;;
22287;SDS011;11312;51.464;6.968;2022-11-13T08:37:29;7.32;;;3.42;;
22287;SDS011;11312;51.464;6.968;2022-11-13T08:39:58;9.52;;;3.75;;
22287;SDS011;11312;51.464;6.968;2022-11-13T08:42:26;8.48;;;3.20;;
22287;SDS011;11312;51.464;6.968;2022-11-13T08:44:52;8.48;;;3.17;;
22287;SDS011;11312;51.464;6.968;2022-11-13T08:47:19;7.82;;;3.33;;
22287;SDS011;11312;51.464;6.968;2022-11-13T08:49:47;7.13;;;2.92;;
22287;SDS011;11312;51.464;6.968;2022-11-13T08:52:24;6.45;;;2.72;;
22287;SDS011;11312;51.464;6.968;2022-11-13T08:54:50;7.55;;;3.13;;
22287;SDS011;11312;51.464;6.968;2022-11-13T08:57:18;7.47;;;2.88;;
22287;SDS011;11312;51.464;6.968;2022-11-13T08:59:47;6.75;;;2.83;;
22287;SDS011;11312;51.464;6.968;2022-11-13T09:02:13;6.97;;;2.95;;
22287;SDS011;11312;51.464;6.968;2022-11-13T09:04:41;7.32;;;2.75;;
22287;SDS011;11312;51.464;6.968;2022-11-13T09:07:09;7.68;;;3.03;;
22287;SDS011;11312;51.464;6.968;2022-11-13T09:09:35;7.55;;;2.85;;
22287;SDS011;11312;51.464;6.968;2022-11-13T09:12:01;7.15;;;2.70;;
22287;SDS011;11312;51.464;6.968;2022-11-13T09:14:32;6.43;;;2.70;;
22287;SDS011;11312;51.464;6.968;2022-11-13T09:16:59;8.80;;;3.47;;
22287;SDS011;11312;51.464;6.968;2022-11-13T09:19:25;7.43;;;3.08;;
22287;SDS011;11312;51.464;6.968;2022-11-13T09:21:53;7.13;;;2.80;;
22287;SDS011;11312;51.464;6.968;2022-11-13T09:24:20;6.85;;;2.65;;
22287;SDS011;11312;51.464;6.968;2022-11-13T09:26:52;6.07;;;2.65;;
22287;SDS011;11312;51.464;6.968;2022-11-13T09:29:20;6.70;;;2.58;;
22287;SDS011;11312;51.464;6.968;2022-11-13T09:31:49;7.03;;;2.65;;
22287;SDS011;11312;51.464;6.968;2022-11-13T09:34:14;5.60;;;2.10;;
22287;SDS011;11312;51.464;6.968;2022-11-13T09:36:40;6.55;;;3.03;;
22287;SDS011;11312;51.464;6.968;2022-11-13T09:39:08;7.68;;;2.80;;
22287;SDS011;11312;51.464;6.968;2022-11-13T09:41:36;7.20;;;3.30;;
22287;SDS011;11312;51.464;6.968;2022-11-13T09:44:40;5.93;;;2.28;;
22287;SDS011;11312;51.464;6.968;2022-11-13T09:47:07;6.53;;;2.55;;
22287;SDS011;11312;51.464;6.968;2022-11-13T09:52:49;5.30;;;2.30;;
22287;SDS011;11312;51.464;6.968;2022-11-13T09:55:22;5.93;;;2.47;;
22287;SDS011;11312;51.464;6.968;2022-11-13T09:58:09;4.90;;;2.08;;
22287;SDS011;11312;51.464;6.968;2022-11-13T10:00:46;5.70;;;2.05;;
22287;SDS011;11312;51.464;6.968;2022-11-13T10:05:56;4.20;;;2.10;;
22287;SDS011;11312;51.464;6.968;2022-11-13T10:08:52;6.20;;;2.55;;
22287;SDS011;11312;51.464;6.968;2022-11-13T10:14:34;5.03;;;2.20;;
22287;SDS011;11312;51.464;6.968;2022-11-13T10:19:54;3.55;;;1.63;;
22287;SDS011;11312;51.464;6.968;2022-11-13T10:27:30;5.85;;;2.67;;
22287;SDS011;11312;51.464;6.968;2022-11-13T10:32:23;3.00;;;1.45;;
22287;SDS011;11312;51.464;6.968;2022-11-13T10:34:56;3.63;;;1.55;;
22287;SDS011;11312;51.464;6.968;2022-11-13T10:40:33;2.25;;;1.15;;
22287;SDS011;11312;51.464;6.968;2022-11-13T10:43:15;3.85;;;1.65;;
22287;SDS011;11312;51.464;6.968;2022-11-13T10:45:56;0.80;;;0.60;;
22287;SDS011;11312;51.464;6.968;2022-11-13T10:48:30;4.00;;;1.58;;
22287;SDS011;11312;51.464;6.968;2022-11-13T10:51:16;1.05;;;0.50;;
22287;SDS011;11312;51.464;6.968;2022-11-13T11:01:38;5.93;;;1.73;;
22287;SDS011;11312;51.464;6.968;2022-11-13T11:04:06;2.15;;;0.70;;
22287;SDS011;11312;51.464;6.968;2022-11-13T11:06:41;1.67;;;0.70;;
22287;SDS011;11312;51.464;6.968;2022-11-13T11:19:40;2.58;;;0.82;;
22287;SDS011;11312;51.464;6.968;2022-11-13T11:22:23;2.55;;;0.90;;
22287;SDS011;11312;51.464;6.968;2022-11-13T11:27:47;3.78;;;1.13;;
22287;SDS011;11312;51.464;6.968;2022-11-13T12:16:47;1.27;;;0.30;;
22287;SDS011;11312;51.464;6.968;2022-11-13T12:27:24;5.28;;;0.85;;
22287;SDS011;11312;51.464;6.968;2022-11-13T12:35:25;0.88;;;0.55;;
22287;SDS011;11312;51.464;6.968;2022-11-13T12:37:54;4.85;;;1.00;;
22287;SDS011;11312;51.464;6.968;2022-11-13T12:45:51;1.75;;;0.57;;
22287;SDS011;11312;51.464;6.968;2022-11-13T12:53:49;3.35;;;1.00;;
22287;SDS011;11312;51.464;6.968;2022-11-13T12:56:29;3.55;;;1.45;;
22287;SDS011;11312;51.464;6.968;2022-11-13T13:01:41;1.23;;;0.65;;
22287;SDS011;11312;51.464;6.968;2022-11-13T13:04:14;2.40;;;0.60;;
22287;SDS011;11312;51.464;6.968;2022-11-13T13:09:52;1.98;;;0.90;;
22287;SDS011;11312;51.464;6.968;2022-11-13T13:15:11;1.25;;;0.60;;
22287;SDS011;11312;51.464;6.968;2022-11-13T13:23:32;15.30;;;2.10;;
22287;SDS011;11312;51.464;6.968;2022-11-13T13:26:01;1.85;;;0.88;;
22287;SDS011;11312;51.464;6.968;2022-11-13T13:28:29;0.85;;;0.75;;
22287;SDS011;11312;51.464;6.968;2022-11-13T13:30:57;5.18;;;2.08;;
22287;SDS011;11312;51.464;6.968;2022-11-13T13:47:27;1.63;;;1.02;;
22287;SDS011;11312;51.464;6.968;2022-11-13T13:50:09;2.45;;;1.25;;
22287;SDS011;11312;51.464;6.968;2022-11-13T13:52:49;1.85;;;0.95;;
22287;SDS011;11312;51.464;6.968;2022-11-13T13:55:21;1.48;;;1.00;;
22287;SDS011;11312;51.464;6.968;2022-11-13T13:57:50;3.80;;;1.50;;
22287;SDS011;11312;51.464;6.968;2022-11-13T14:00:17;1.38;;;0.98;;
22287;SDS011;11312;51.464;6.968;2022-11-13T14:02:49;5.45;;;2.00;;
22287;SDS011;11312;51.464;6.968;2022-11-13T14:07:51;1.50;;;0.93;;
22287;SDS011;11312;51.464;6.968;2022-11-13T14:10:17;3.17;;;1.48;;
22287;SDS011;11312;51.464;6.968;2022-11-13T14:12:46;2.17;;;1.25;;
22287;SDS011;11312;51.464;6.968;2022-11-13T14:15:28;0.77;;;0.77;;
22287;SDS011;11312;51.464;6.968;2022-11-13T14:20:34;2.67;;;1.23;;
22287;SDS011;11312;51.464;6.968;2022-11-13T14:23:31;1.27;;;1.00;;
22287;SDS011;11312;51.464;6.968;2022-11-13T14:26:03;1.67;;;1.15;;
22287;SDS011;11312;51.464;6.968;2022-11-13T14:28:31;1.52;;;1.00;;
22287;SDS011;11312;51.464;6.968;2022-11-13T14:31:10;2.10;;;1.05;;
22287;SDS011;11312;51.464;6.968;2022-11-13T14:33:40;2.80;;;1.30;;
22287;SDS011;11312;51.464;6.968;2022-11-13T14:36:08;0.95;;;0.93;;
22287;SDS011;11312;51.464;6.968;2022-11-13T14:38:35;2.08;;;1.00;;
22287;SDS011;11312;51.464;6.968;2022-11-13T14:41:30;2.58;;;1.23;;
22287;SDS011;11312;51.464;6.968;2022-11-13T14:43:57;2.92;;;1.20;;
22287;SDS011;11312;51.464;6.968;2022-11-13T14:48:58;4.15;;;1.88;;
22287;SDS011;11312;51.464;6.968;2022-11-13T14:51:25;8.00;;;2.70;;
22287;SDS011;11312;51.464;6.968;2022-11-13T14:53:58;3.55;;;1.55;;
22287;SDS011;11312;51.464;6.968;2022-11-13T14:56:33;3.75;;;1.60;;
22287;SDS011;11312;51.464;6.968;2022-11-13T14:59:13;2.70;;;1.27;;
22287;SDS011;11312;51.464;6.968;2022-11-13T15:01:52;2.38;;;1.33;;
22287;SDS011;11312;51.464;6.968;2022-11-13T15:04:24;2.13;;;1.15;;
22287;SDS011;11312;51.464;6.968;2022-11-13T15:06:50;1.88;;;1.17;;
22287;SDS011;11312;51.464;6.968;2022-11-13T15:09:19;4.43;;;1.83;;
22287;SDS011;11312;51.464;6.968;2022-11-13T15:11:47;1.00;;;0.90;;
22287;SDS011;11312;51.464;6.968;2022-11-13T15:14:17;1.90;;;1.20;;
22287;SDS011;11312;51.464;6.968;2022-11-13T15:16:44;3.33;;;1.50;;
22287;SDS011;11312;51.464;6.968;2022-11-13T15:19:30;3.30;;;1.23;;
22287;SDS011;11312;51.464;6.968;2022-11-13T15:22:01;1.73;;;1.13;;
22287;SDS011;11312;51.464;6.968;2022-11-13T15:24:28;1.30;;;1.10;;
22287;SDS011;11312;51.464;6.968;2022-11-13T15:26:54;3.42;;;1.45;;
22287;SDS011;11312;51.464;6.968;2022-11-13T15:29:20;2.38;;;1.40;;
22287;SDS011;11312;51.464;6.968;2022-11-13T15:31:45;1.35;;;1.10;;
22287;SDS011;11312;51.464;6.968;2022-11-13T15:34:12;8.70;;;1.58;;
22287;SDS011;11312;51.464;6.968;2022-11-13T15:36:39;4.63;;;2.03;;
22287;SDS011;11312;51.464;6.968;2022-11-13T15:39:05;2.53;;;1.58;;
22287;SDS011;11312;51.464;6.968;2022-11-13T15:41:35;5.13;;;1.77;;
22287;SDS011;11312;51.464;6.968;2022-11-13T15:44:01;4.50;;;1.92;;
22287;SDS011;11312;51.464;6.968;2022-11-13T15:46:34;2.25;;;1.40;;
22287;SDS011;11312;51.464;6.968;2022-11-13T15:49:01;3.15;;;1.63;;
22287;SDS011;11312;51.464;6.968;2022-11-13T15:54:00;3.75;;;1.58;;
22287;SDS011;11312;51.464;6.968;2022-11-13T15:56:35;3.78;;;1.75;;
22287;SDS011;11312;51.464;6.968;2022-11-13T15:59:01;4.80;;;1.65;;
22287;SDS011;11312;51.464;6.968;2022-11-13T16:01:26;3.83;;;1.85;;
22287;SDS011;11312;51.464;6.968;2022-11-13T16:03:52;4.78;;;1.58;;
22287;SDS011;11312;51.464;6.968;2022-11-13T16:06:21;3.75;;;1.80;;
22287;SDS011;11312;51.464;6.968;2022-11-13T16:08:47;5.53;;;2.30;;
22287;SDS011;11312;51.464;6.968;2022-11-13T16:11:14;2.70;;;1.60;;
22287;SDS011;11312;51.464;6.968;2022-11-13T16:13:44;2.60;;;1.45;;
22287;SDS011;11312;51.464;6.968;2022-11-13T16:16:21;3.58;;;1.65;;
22287;SDS011;11312;51.464;6.968;2022-11-13T16:18:48;2.67;;;1.52;;
22287;SDS011;11312;51.464;6.968;2022-11-13T16:21:15;3.05;;;1.75;;
22287;SDS011;11312;51.464;6.968;2022-11-13T16:23:42;5.35;;;1.92;;
22287;SDS011;11312;51.464;6.968;2022-11-13T16:26:10;4.22;;;2.22;;
22287;SDS011;11312;51.464;6.968;2022-11-13T16:28:38;2.70;;;1.45;;
22287;SDS011;11312;51.464;6.968;2022-11-13T16:31:04;4.72;;;1.80;;
22287;SDS011;11312;51.464;6.968;2022-11-13T16:33:31;2.60;;;1.50;;
22287;SDS011;11312;51.464;6.968;2022-11-13T16:35:56;5.38;;;2.42;;
22287;SDS011;11312;51.464;6.968;2022-11-13T16:38:22;3.67;;;1.70;;
22287;SDS011;11312;51.464;6.968;2022-11-13T16:40:48;4.93;;;2.45;;
22287;SDS011;11312;51.464;6.968;2022-11-13T16:43:13;5.25;;;1.90;;
22287;SDS011;11312;51.464;6.968;2022-11-13T16:45:41;4.93;;;2.03;;
22287;SDS011;11312;51.464;6.968;2022-11-13T16:48:16;6.00;;;2.30;;
22287;SDS011;11312;51.464;6.968;2022-11-13T16:50:42;5.13;;;2.25;;
22287;SDS011;11312;51.464;6.968;2022-11-13T16:53:08;4.50;;;1.90;;
22287;SDS011;11312;51.464;6.968;2022-11-13T16:55:34;4.97;;;2.10;;
22287;SDS011;11312;51.464;6.968;2022-11-13T16:58:04;4.18;;;2.10;;
22287;SDS011;11312;51.464;6.968;2022-11-13T17:00:30;4.05;;;1.77;;
22287;SDS011;11312;51.464;6.968;2022-11-13T17:02:56;6.32;;;2.15;;
22287;SDS011;11312;51.464;6.968;2022-11-13T17:05:22;2.50;;;1.50;;
22287;SDS011;11312;51.464;6.968;2022-11-13T17:07:48;3.53;;;1.75;;
22287;SDS011;11312;51.464;6.968;2022-11-13T17:10:18;6.30;;;2.10;;
22287;SDS011;11312;51.464;6.968;2022-11-13T17:12:49;6.32;;;2.25;;
22287;SDS011;11312;51.464;6.968;2022-11-13T17:15:16;2.72;;;1.60;;
22287;SDS011;11312;51.464;6.968;2022-11-13T17:17:43;4.53;;;2.22;;
22287;SDS011;11312;51.464;6.968;2022-11-13T17:20:09;5.60;;;2.38;;
22287;SDS011;11312;51.464;6.968;2022-11-13T17:22:35;7.15;;;2.92;;
22287;SDS011;11312;51.464;6.968;2022-11-13T17:25:01;6.55;;;2.97;;
22287;SDS011;11312;51.464;6.968;2022-11-13T17:27:27;5.65;;;2.10;;
22287;SDS011;11312;51.464;6.968;2022-11-13T17:29:52;6.72;;;1.95;;
22287;SDS011;11312;51.464;6.968;2022-11-13T17:32:18;5.07;;;1.90;;
22287;SDS011;11312;51.464;6.968;2022-11-13T17:34:44;4.82;;;2.00;;
22287;SDS011;11312;51.464;6.968;2022-11-13T17:37:10;3.95;;;1.98;;
22287;SDS011;11312;51.464;6.968;2022-11-13T17:39:36;5.53;;;2.40;;
22287;SDS011;11312;51.464;6.968;2022-11-13T17:42:01;9.50;;;3.35;;
22287;SDS011;11312;51.464;6.968;2022-11-13T17:44:27;4.45;;;1.92;;
22287;SDS011;11312;51.464;6.968;2022-11-13T17:46:52;5.60;;;2.63;;